View Sortable Currents For Network
ASOSAWOSCoCoRaHSCOOPDCPISUSM
SchoolNetOtherSCANMy FavoritesBy StateRWIS
RWIS SurfaceRWIS TrafficRWIS SoilBy NWS WFOUSCRN
ADD: Station: Ob Time Temps °F     Wind [knots] Precip
Air (Hi / Lo) DewP Feels RH% Vis Speed Direction Gust @Time Accum [1]
Dubuque (US 20)05:46 AM 34.88(36.5/34.7) 30.02 29 82 0 5G15 215 16@ 05:26 AM 0
Des Moines (I-35)05:46 AM 35.78(36.14/34.34) 23.72 31 61 0 5G11 195 11@ 12:27 AM 0
Ankeny (I-35)05:46 AM 36.68(39.02/36.14) 27.5 30 69 1.2 8G13 210 17@ 02:26 AM 0
De Witt (US 30/US 61)05:46 AM 32.18(33.08/31.64) 31.64 29 98 0 3G5 235 11@ 04:47 AM 0
Hawkeye05:45 AM 34.16(34.88/33.08) 27.32 27 76 0 7G11 200 14@ 03:25 AM 0
Urbana (I-380)05:45 AM 32.9(34.88/32.9) 28.94 26 85 1.3 6G10 180 11@ 04:25 AM 0
Denison05:45 AM 32.9(33.44/31.64) 25.52 33 74 1.1 0 10 0@ 06:00 PM 0
Saratoga05:45 AM 31.82(32.54/31.28) 27.86 23 85 0 10G12 225 13@ 02:15 AM 0
Victor05:45 AM 31.64(32.72/30.92) 27.5 22 84 0 12G12 207 12@ 04:15 AM 0
Ottumwa (US 63)05:44 AM 32.54(34.52/32) 30.56 33 92 4 1G3 160 5@ 02:54 AM 0
Osceola (I-35)05:44 AM 31.64(33.8/31.28) 30.56 24 96 1.6 8G11 0 12@ 05:34 AM 0
Red Oak (US 34/US 71)05:44 AM 31.46(33.62/30.56) 28.76 31 90 0 2G5 165 6@ 04:45 AM 0
Steamboat Rock (US20)05:44 AM 34.7(34.88/33.8) 27.68 25 75 0 12G15 215 16@ 04:14 AM 0
Missouri Valley (I-29)05:43 AM 35.78(36.68/34.16) 28.4 32 74 0.1 4G5 200 12@ 02:02 AM 0
Mount Pleasant (US 218)05:43 AM 30.2(34.34/30.02) 28.94 30 95 0 1G3 135 5@ 12:13 AM 0
Sloan I-2905:43 AM 34.34(36.5/34.34) 27.68 30 76 0.1 4G7 220 16@ 12:04 AM 0
Maquoketa (US 61/IA 64)05:43 AM 31.46(34.34/30.92) 28.76 25 90 0 5G8 230 9@ 05:23 AM 0
Manchester (US 20)05:43 AM 32.18(34.88/32.18) 28.22 27 85 0 4G8 205 10@ 02:02 AM 0
Des Moines (I-235)05:42 AM 36.14(38.48/36.14) 28.4 36 73 0 0 361 0@ 06:00 PM 0
Sidney (I-29/IA 2)05:42 AM 35.78(39.74/35.42) 28.58 31 75 7.1 5G9 200 18@ 02:52 AM 0
Iowa City (I-80)05:42 AM (/) 0 0 0 0 361 0@ 06:00 PM 0
Iowa City (US 218)05:42 AM 32.36(35.96/31.64) 32.36 28 100 0 4G8 220 10@ 05:12 AM 0
Fort Dodge (US 20)05:42 AM 35.96(35.96/34.88) 26.78 29 69 0 9G13 230 15@ 12:22 AM 0
Jefferson (IA 4)05:42 AM 36.68(37.04/35.06) 28.4 31 72 7.1 6G9 230 13@ 01:53 AM 0
De Soto (I-80/US 169)05:42 AM 36.68(36.68/33.44) 28.22 33 71 0.4 4G9 235 11@ 04:52 AM 0
Leon (I-35)/IA 2)05:42 AM 31.1(33.08/30.02) 28.4 26 90 0.1 4G8 210 10@ 03:23 AM 0
Storm Lake (US 71/IA 3)05:41 AM 33.08(36.32/33.08) 27.32 27 79 0.1 6G9 235 17@ 12:01 AM 0
Pella (IA 163)05:41 AM 31.82(34.88/31.46) 26.96 29 82 0 3G6 210 8@ 04:51 AM 0
Decorah (IA 9)05:41 AM 51.26(51.44/50.54) 45.68 51 81 7.1 8G13 185 17@ 05:01 AM 0
Council Bluffs (I-80)05:41 AM 36.86(37.4/36.5) 36.32 37 98 0 2G5 0 10@ 01:11 AM 0
Creston (US 34)05:41 AM 30.56(32.9/29.84) 26.06 22 83 0 8G11 220 13@ 05:01 AM 0
Spencer (US 18)05:41 AM (/) 0 0 1.2 9G11 245 13@ 01:21 AM 0
Anamosa (US 151)05:40 AM 31.64(34.16/31.28) 29.66 26 92 1.2 5G8 195 8@ 04:50 AM 0
Sibley05:40 AM 29.84(35.24/29.66) 29.84 25 100 0.2 4G5 230 15@ 12:10 AM 0
Ida Grove (US 59)05:40 AM 33.8(35.42/33.8) 26.96 30 76 0 4G5 250 13@ 12:50 AM 0
Bedford05:40 AM 28.22(30.2/26.6) 28.22 23 100 5.6 4G5 190 6@ 03:10 AM 0
Colfax - I-8005:40 AM 31.46(31.64/30.02) 29.48 26 92 0.1 5G7 230 8@ 03:20 AM 0
Sioux City Maintenance05:40 AM (/) 0 0 0 0 0@ 06:00 PM 0
Cambridge I-3505:40 AM (/) 0 0 1.2 0 361 0@ 06:00 PM 0
Centerville (IA 2)05:40 AM 33.44(33.8/31.1) 28.04 27 80 0 7G11 215 15@ 05:30 AM 0
Plainfield05:40 AM 33.08(34.16/32.54) 4.46 26 29 0 8G10 225 13@ 12:50 AM 0
Quad Cities05:40 AM 34.7(37.94/34.7) 33.44 28 95 4.3 6G9 245 12@ 04:40 AM 0
Estherville - Hwy 905:40 AM 34.7(37.04/34.52) 27.5 32 75 0 3G8 255 14@ 01:10 AM 0
Tama05:40 AM 35.78(36.5/33.98) -81.22 28 0 7.1 10G16 215 16@ 05:40 AM 0
Cantril05:40 AM 32(34.88/31.82) 21.56 32 65 0.9 0G2 0 5@ 12:00 AM 0
Rockwell City05:40 AM 34.88(34.88/33.26) 28.58 26 78 0 11G14 240 16@ 12:40 AM 0
Eddyville05:40 AM 34.34(36.86/32.9) 29.12 28 81 5.2 7G12 215 12@ 01:30 AM 0
New Hampton (US 18)05:40 AM 33.8(34.34/33.62) 28.76 26 82 4.9 9G13 5 13@ 01:10 AM 0
Adair (I-80)05:40 AM 33.62(35.24/33.62) 26.6 29 75 0.1 4G10 240 18@ 03:30 AM 0
Algona (US 18)05:40 AM 33.08(34.34/33.08) 28.76 26 84 0 6G11 230 15@ 02:30 AM 0
Altoona (I-80/US 65)05:40 AM 34.34(35.96/34.34) 27.68 28 76 3.1 7G10 210 15@ 03:30 AM 0
Sigourney (IA 92)05:40 AM (/) 0 0 0 0 5 0@ 06:00 PM 0
Moville05:40 AM 30.2(32.72/30.2) 29.66 25 98 0 4G6 245 10@ 01:10 AM 0
Elkhart I-35 No105:40 AM (/) 0 0 1.2 0 361 0@ 06:00 PM 0
Elkhart I-35 No205:40 AM (/) 0 0 1.2 0 361 0@ 06:00 PM 0
Burlington (US 34)05:40 AM 35.96(38.12/35.96) 35.6 33 99 0 3G8 215 9@ 04:10 AM 0
Council Bluffs No205:40 AM 33.44(35.78/32.72) 28.94 30 83 0 3G6 220 10@ 03:00 AM 0
Hanlontown (I-35)05:40 AM 33.8(36.14/33.8) 28.4 34 80 0.2 0 10 0@ 06:00 PM 0
Cedar Rapids (I-380)05:40 AM 34.34(38.3/33.98) 30.38 29 85 0.3 5G8 5 11@ 05:30 AM 0
Cedar Rapids (US 30)05:40 AM 36.5(39.02/35.24) 32.72 30 86 0.1 8G15 190 17@ 03:00 AM 0
Carroll (US 30)05:40 AM 34.16(35.6/34.16) 27.14 32 75 0 3G6 215 21@ 12:40 AM 0
Waterloo (US 20)05:40 AM 36.14(37.22/35.6) 33.26 30 89 0 7G14 245 15@ 04:10 AM 0
Williams (I-35)05:40 AM 34.16(34.34/32.54) 28.94 27 81 0 8G14 235 14@ 05:40 AM 0
Mason City (I-35)05:40 AM 50.18(50.36/49.46) 43.88 50 79 0.1 0 215 0@ 06:00 PM 0
Tipton (I-80)05:40 AM 32.9(36.5/32.9) 29.84 27 88 1.3 5G10 230 12@ 05:00 AM 0
Alton (IA10)05:40 AM 30.74(33.26/30.74) 26.24 27 83 0 3G5 215 11@ 12:20 AM 0
Avoca (I-80)05:40 AM 31.28(33.08/31.28) 25.34 25 78 0.2 5G8 210 10@ 03:20 AM 0
Williamsburg (I-80)05:40 AM 33.08(33.08/31.64) 29.84 26 88 0.6 6G10 205 12@ 05:30 AM 0
Marshalltown (US 30)Oct-16-2018Site Offline


Notes:
1 Not all sites have the ability to measure precip nor visibility.
2 The Iowa City (I-80) RWIS site does not have atmospheric sensors on it , so it is not included on this page.